Time;durP1;ratioP1;P1;durP2;ratioP2;P2;SDS_P1;SDS_P2;PMS_P1;PMS_P2;Temp;Humidity;BMP_temperature;BMP_pressure;BME280_temperature;BME280_humidity;BME280_pressure;Samples;Min_cycle;Max_cycle;Signal;HPM_P1;HPM_P2
2024/01/11 00:01:36;;;;;;;1999.90;999.90;;;-5.00;99.90;;;;;;6096431;23;20336;-75
2024/01/11 00:04:01;;;;;;;1999.90;999.90;;;-5.00;99.90;;;;;;6096628;23;20138;-74
2024/01/11 00:06:27;;;;;;;1999.90;999.90;;;-4.90;99.90;;;;;;6070862;23;20011;-74
2024/01/11 00:08:53;;;;;;;1999.90;999.90;;;-5.00;99.90;;;;;;6096457;23;20447;-75
2024/01/11 00:11:19;;;;;;;1999.90;999.90;;;-5.00;99.90;;;;;;6096194;23;20007;-73
2024/01/11 00:13:44;;;;;;;1999.90;999.90;;;-5.00;99.90;;;;;;6070589;23;20462;-74
2024/01/11 00:16:10;;;;;;;1999.90;999.90;;;-4.90;99.90;;;;;;6096094;23;20343;-74
2024/01/11 00:18:35;;;;;;;1999.90;999.90;;;-5.00;99.90;;;;;;6097279;23;20019;-75
2024/01/11 00:21:01;;;;;;;1999.90;999.90;;;-5.00;99.90;;;;;;6098312;23;20015;-73
2024/01/11 00:23:27;;;;;;;1999.90;999.90;;;-4.90;99.90;;;;;;6098206;23;20015;-73
2024/01/11 00:25:53;;;;;;;1999.90;999.90;;;-4.90;99.90;;;;;;6098024;23;20011;-74
2024/01/11 00:28:18;;;;;;;1999.90;999.90;;;-4.90;99.90;;;;;;6073085;23;20014;-74
2024/01/11 00:30:44;;;;;;;1999.90;999.90;;;-5.00;99.90;;;;;;6072646;23;20533;-74
2024/01/11 00:33:09;;;;;;;1999.90;999.90;;;-5.00;99.90;;;;;;6097880;23;20014;-74
2024/01/11 00:35:35;;;;;;;1999.90;999.90;;;-4.90;99.90;;;;;;6098385;23;20343;-74
2024/01/11 00:38:00;;;;;;;1999.90;999.90;;;-5.00;99.90;;;;;;6097146;23;20014;-74
2024/01/11 00:40:26;;;;;;;1999.90;999.90;;;-4.90;99.90;;;;;;6098027;23;20011;-74
2024/01/11 00:42:51;;;;;;;1999.90;999.90;;;-5.00;99.90;;;;;;6098789;23;20007;-75
2024/01/11 00:45:18;;;;;;;1999.90;999.90;;;-5.00;99.90;;;;;;6099169;23;20007;-74
2024/01/11 00:47:43;;;;;;;1999.90;999.90;;;-5.10;99.90;;;;;;6098835;23;20003;-74
2024/01/11 00:50:09;;;;;;;1999.90;999.90;;;-5.20;99.90;;;;;;6098929;23;20065;-75
2024/01/11 00:52:35;;;;;;;1999.90;999.90;;;-5.30;99.90;;;;;;6098592;23;20007;-75
2024/01/11 00:55:00;;;;;;;1999.90;999.90;;;-5.40;99.90;;;;;;6098804;23;20418;-73
2024/01/11 00:57:26;;;;;;;1999.90;999.90;;;-5.40;99.90;;;;;;6098719;23;20014;-74
2024/01/11 00:59:51;;;;;;;1999.90;999.90;;;-5.50;99.90;;;;;;6098828;23;20015;-74
2024/01/11 01:02:17;;;;;;;1999.90;999.90;;;-5.50;99.90;;;;;;6098363;23;20325;-74
2024/01/11 01:04:42;;;;;;;1999.90;999.90;;;-5.40;99.90;;;;;;6098885;23;20011;-74
2024/01/11 01:07:08;;;;;;;1999.90;999.90;;;-5.30;99.90;;;;;;6098436;23;20070;-74
2024/01/11 01:09:34;;;;;;;1999.90;999.90;;;-5.20;99.90;;;;;;6098707;23;20045;-74
2024/01/11 01:12:00;;;;;;;1999.90;999.90;;;-5.20;99.90;;;;;;6098406;23;20422;-74
2024/01/11 01:14:25;;;;;;;1999.90;999.90;;;-5.20;99.90;;;;;;6098652;23;20015;-74
2024/01/11 01:16:51;;;;;;;1999.90;999.90;;;-5.30;99.90;;;;;;6098097;23;20335;-74
2024/01/11 01:19:16;;;;;;;1999.90;999.90;;;-5.20;99.90;;;;;;6098663;23;20018;-74
2024/01/11 01:21:42;;;;;;;1999.90;999.90;;;-5.30;99.90;;;;;;6098461;23;20007;-74
2024/01/11 01:24:07;;;;;;;1999.90;999.90;;;-5.10;99.90;;;;;;6098621;23;20015;-74
2024/01/11 01:26:33;;;;;;;1999.90;999.90;;;-5.10;99.90;;;;;;6098286;23;20003;-74
2024/01/11 01:28:58;;;;;;;1999.90;999.90;;;-5.10;99.90;;;;;;6098648;23;20021;-74
2024/01/11 01:31:24;;;;;;;1999.90;999.90;;;-5.20;99.90;;;;;;6097738;23;20003;-74
2024/01/11 01:33:49;;;;;;;1999.90;999.90;;;-5.20;99.90;;;;;;6098493;23;20015;-74
2024/01/11 01:36:15;;;;;;;1999.90;999.90;;;-5.20;99.90;;;;;;6098538;23;20056;-74
2024/01/11 01:38:40;;;;;;;1999.90;999.90;;;-5.20;99.90;;;;;;6098558;23;20011;-74
2024/01/11 01:41:06;;;;;;;1999.90;999.90;;;-5.20;99.90;;;;;;6072550;23;20019;-74
2024/01/11 01:43:32;;;;;;;1999.90;999.90;;;-5.30;99.90;;;;;;6098525;23;20007;-74
2024/01/11 01:45:58;;;;;;;1999.90;999.90;;;-5.50;99.90;;;;;;6098111;23;20003;-74
2024/01/11 01:48:23;;;;;;;1999.90;999.90;;;-5.60;99.90;;;;;;6098511;23;20014;-74
2024/01/11 01:50:52;;;;;;;1999.90;999.90;;;-5.50;99.90;;;;;;6098227;23;20006;-74
2024/01/11 01:53:19;;;;;;;1999.90;999.90;;;-5.40;99.90;;;;;;6097934;23;20089;-74
2024/01/11 01:55:45;;;;;;;1999.90;999.90;;;-5.30;99.90;;;;;;6098551;23;20003;-74
2024/01/11 01:58:12;;;;;;;1999.90;999.90;;;-5.20;99.90;;;;;;6098379;23;20026;-74
2024/01/11 02:00:38;;;;;;;1999.90;999.90;;;-5.20;99.90;;;;;;6098320;23;20003;-74
2024/01/11 02:03:04;;;;;;;1999.90;999.90;;;-5.20;99.90;;;;;;6098119;23;20007;-74
2024/01/11 02:05:30;;;;;;;1999.90;999.90;;;-5.20;99.90;;;;;;6098332;23;20053;-74
2024/01/11 02:07:57;;;;;;;1999.90;999.90;;;-5.30;99.90;;;;;;6097526;23;20022;-74
2024/01/11 02:10:24;;;;;;;1999.90;999.90;;;-5.30;99.90;;;;;;6072339;23;20033;-74
2024/01/11 02:12:50;;;;;;;1999.90;999.90;;;-5.30;99.90;;;;;;6097810;23;20086;-74
2024/01/11 02:15:15;;;;;;;1999.90;999.90;;;-5.50;99.90;;;;;;6098238;23;20090;-74
2024/01/11 02:17:41;;;;;;;1999.90;999.90;;;-5.50;99.90;;;;;;6097744;23;20398;-74
2024/01/11 02:20:07;;;;;;;1999.90;999.90;;;-5.50;99.90;;;;;;6098174;23;20007;-74
2024/01/11 02:22:36;;;;;;;1999.90;999.90;;;-5.50;99.90;;;;;;6097837;23;20422;-74
2024/01/11 02:25:02;;;;;;;1999.90;999.90;;;-5.30;99.90;;;;;;6098203;23;20006;-74
2024/01/11 02:27:28;;;;;;;1999.90;999.90;;;-5.30;99.90;;;;;;6097770;23;20018;-74
2024/01/11 02:29:53;;;;;;;1999.90;999.90;;;-5.30;99.90;;;;;;6097968;23;20514;-74
2024/01/11 02:32:19;;;;;;;1999.90;999.90;;;-5.30;99.90;;;;;;6097767;23;20343;-74
2024/01/11 02:34:45;;;;;;;1999.90;999.90;;;-5.20;99.90;;;;;;6097947;23;20086;-74
2024/01/11 02:37:11;;;;;;;1999.90;999.90;;;-5.10;99.90;;;;;;6097787;23;20442;-74
2024/01/11 02:39:37;;;;;;;1999.90;999.90;;;-5.00;99.90;;;;;;6097915;23;20018;-74
2024/01/11 02:42:03;;;;;;;1999.90;999.90;;;-5.00;99.90;;;;;;6097519;23;20014;-74
2024/01/11 02:44:28;;;;;;;1999.90;999.90;;;-5.00;99.90;;;;;;6097868;23;20014;-74
2024/01/11 02:46:54;;;;;;;1999.90;999.90;;;-5.10;99.90;;;;;;6097615;23;20069;-75
2024/01/11 02:49:19;;;;;;;1999.90;999.90;;;-5.00;99.90;;;;;;6097969;23;20082;-74
2024/01/11 02:51:45;;;;;;;1999.90;999.90;;;-4.90;99.90;;;;;;6097537;23;20010;-74
2024/01/11 02:54:11;;;;;;;1999.90;999.90;;;-5.00;99.90;;;;;;6097809;23;20010;-74
2024/01/11 02:56:36;;;;;;;1999.90;999.90;;;-5.00;99.90;;;;;;6097556;23;20068;-73
2024/01/11 02:59:02;;;;;;;1999.90;999.90;;;-5.10;99.90;;;;;;6097728;23;20007;-74
2024/01/11 03:01:27;;;;;;;1999.90;999.90;;;-5.10;99.90;;;;;;6097362;23;20015;-74
2024/01/11 03:03:54;;;;;;;1999.90;999.90;;;-5.10;99.90;;;;;;6097775;23;20011;-74
2024/01/11 03:06:21;;;;;;;1999.90;999.90;;;-5.20;99.90;;;;;;6097532;23;20481;-74
2024/01/11 03:08:48;;;;;;;1999.90;999.90;;;-5.10;99.90;;;;;;6097728;23;20007;-74
2024/01/11 03:11:14;;;;;;;1999.90;999.90;;;-5.20;99.90;;;;;;6097371;23;20418;-74
2024/01/11 03:13:39;;;;;;;1999.90;999.90;;;-5.10;99.90;;;;;;6097617;23;20007;-74
2024/01/11 03:16:05;;;;;;;1999.90;999.90;;;-5.10;99.90;;;;;;6071672;23;20015;-74
2024/01/11 03:18:31;;;;;;;1999.90;999.90;;;-5.10;99.90;;;;;;6097844;23;20083;-74
2024/01/11 03:20:57;;;;;;;1999.90;999.90;;;-5.20;99.90;;;;;;6097616;23;20061;-73
2024/01/11 03:23:22;;;;;;;1999.90;999.90;;;-5.30;99.90;;;;;;6097280;23;20812;-74
2024/01/11 03:25:48;;;;;;;1999.90;999.90;;;-5.30;99.90;;;;;;6097538;23;20010;-74
2024/01/11 03:28:13;;;;;;;1999.90;999.90;;;-5.30;99.90;;;;;;6097470;23;20011;-74
2024/01/11 03:30:39;;;;;;;1999.90;999.90;;;-5.20;99.90;;;;;;6097515;23;20053;-74
2024/01/11 03:33:05;;;;;;;1999.90;999.90;;;-5.20;99.90;;;;;;6097125;23;20007;-74
2024/01/11 03:35:31;;;;;;;1999.90;999.90;;;-5.20;99.90;;;;;;6097590;23;20018;-74
2024/01/11 03:37:56;;;;;;;1999.90;999.90;;;-5.10;99.90;;;;;;6097222;23;20327;-74
2024/01/11 03:40:22;;;;;;;1999.90;999.90;;;-5.10;99.90;;;;;;6097469;23;20447;-74
2024/01/11 03:42:47;;;;;;;1999.90;999.90;;;-5.00;99.90;;;;;;6097184;23;20013;-74
2024/01/11 03:45:13;;;;;;;1999.90;999.90;;;-5.00;99.90;;;;;;6097374;23;20466;-74
2024/01/11 03:47:38;;;;;;;1999.90;999.90;;;-5.00;99.90;;;;;;6097369;23;20007;-74
2024/01/11 03:50:05;;;;;;;1999.90;999.90;;;-5.00;99.90;;;;;;6097456;23;20007;-74
2024/01/11 03:52:30;;;;;;;1999.90;999.90;;;-5.10;99.90;;;;;;6096954;23;20074;-74
2024/01/11 03:54:56;;;;;;;1999.90;999.90;;;-5.00;99.90;;;;;;6073345;23;20094;-73
2024/01/11 03:57:21;;;;;;;1999.90;999.90;;;-5.00;99.90;;;;;;6099347;23;20007;-74
2024/01/11 03:59:47;;;;;;;1999.90;999.90;;;-5.20;99.90;;;;;;6099448;23;20010;-74
2024/01/11 04:02:12;;;;;;;1999.90;999.90;;;-5.40;99.90;;;;;;6099049;23;20014;-74
2024/01/11 04:04:38;;;;;;;1999.90;999.90;;;-5.50;99.90;;;;;;6099540;23;20021;-74
2024/01/11 04:07:03;;;;;;;1999.90;999.90;;;-5.50;99.90;;;;;;6098927;23;20003;-74
2024/01/11 04:09:29;;;;;;;1999.90;999.90;;;-5.30;99.90;;;;;;6099351;23;20065;-74
2024/01/11 04:11:55;;;;;;;1999.90;999.90;;;-5.30;99.90;;;;;;6099043;23;20432;-75
2024/01/11 04:14:21;;;;;;;1999.90;999.90;;;-5.30;99.90;;;;;;6099147;23;20019;-74
2024/01/11 04:16:46;;;;;;;1999.90;999.90;;;-5.20;99.90;;;;;;6098490;23;20027;-74
2024/01/11 04:19:12;;;;;;;1999.90;999.90;;;-5.20;99.90;;;;;;6099268;23;20035;-74
2024/01/11 04:21:38;;;;;;;1999.90;999.90;;;-5.30;99.90;;;;;;6098918;23;20011;-75
2024/01/11 04:24:06;;;;;;;1999.90;999.90;;;-5.30;99.90;;;;;;6099120;23;20014;-73
2024/01/11 04:26:31;;;;;;;1999.90;999.90;;;-5.40;99.90;;;;;;6098942;23;20010;-74
2024/01/11 04:28:59;;;;;;;1999.90;999.90;;;-5.40;99.90;;;;;;6099193;23;20010;-74
2024/01/11 04:31:25;;;;;;;1999.90;999.90;;;-5.40;99.90;;;;;;6098803;23;20003;-73
2024/01/11 04:33:51;;;;;;;1999.90;999.90;;;-5.30;99.90;;;;;;6099033;23;20011;-74
2024/01/11 04:36:17;;;;;;;1999.90;999.90;;;-5.30;99.90;;;;;;6098819;23;20030;-74
2024/01/11 04:38:42;;;;;;;1999.90;999.90;;;-5.00;99.90;;;;;;6099128;23;20006;-74
2024/01/11 04:41:12;;;;;;;1999.90;999.90;;;-5.30;99.90;;;;;;6098622;23;20035;-74
2024/01/11 04:43:42;;;;;;;1999.90;999.90;;;-5.30;99.90;;;;;;6098917;23;20090;-74
2024/01/11 04:46:21;;;;;;;1999.90;999.90;;;-5.30;99.90;;;;;;6098657;23;20007;-74
2024/01/11 04:48:51;;;;;;;1999.90;999.90;;;-5.40;99.90;;;;;;6099057;23;20011;-74
2024/01/11 04:51:17;;;;;;;1999.90;999.90;;;-5.50;99.90;;;;;;6098652;23;20129;-73
2024/01/11 04:53:44;;;;;;;1999.90;999.90;;;-5.60;99.90;;;;;;6098473;23;20065;-74
2024/01/11 04:56:12;;;;;;;1999.90;999.90;;;-5.60;99.90;;;;;;6098814;23;20319;-74
2024/01/11 04:58:40;;;;;;;1999.90;999.90;;;-5.50;99.90;;;;;;6098814;23;20030;-74
2024/01/11 05:01:07;;;;;;;1999.90;999.90;;;-5.50;99.90;;;;;;6072572;23;20018;-73
2024/01/11 05:03:32;;;;;;;1999.90;999.90;;;-5.60;99.90;;;;;;6098774;23;20139;-74
2024/01/11 05:06:01;;;;;;;1999.90;999.90;;;-5.60;99.90;;;;;;6098323;23;20039;-74
2024/01/11 05:08:27;;;;;;;1999.90;999.90;;;-5.50;99.90;;;;;;6098957;23;20011;-74
2024/01/11 05:10:53;;;;;;;1999.90;999.90;;;-5.50;99.90;;;;;;6073136;23;20007;-74
2024/01/11 05:13:19;;;;;;;1999.90;999.90;;;-5.50;99.90;;;;;;6098341;23;20358;-74
2024/01/11 05:15:45;;;;;;;1999.90;999.90;;;-5.40;99.90;;;;;;6098705;23;20074;-74
2024/01/11 05:18:12;;;;;;;1999.90;999.90;;;-5.40;99.90;;;;;;6124009;23;20021;-73
2024/01/11 05:20:37;;;;;;;1999.90;999.90;;;-5.40;99.90;;;;;;6127983;23;20018;-73
2024/01/11 05:23:03;;;;;;;1999.90;999.90;;;-5.50;99.90;;;;;;6127800;23;20621;-72
2024/01/11 05:25:33;;;;;;;1999.90;999.90;;;-5.50;99.90;;;;;;6126545;23;20002;-73
2024/01/11 05:28:03;;;;;;;1999.90;999.90;;;-5.60;99.90;;;;;;6127598;23;20458;-73
2024/01/11 05:30:28;;;;;;;1999.90;999.90;;;-5.60;99.90;;;;;;6128068;23;20007;-73
2024/01/11 05:32:54;;;;;;;1999.90;999.90;;;-5.70;99.90;;;;;;6127705;23;20010;-72
2024/01/11 05:35:20;;;;;;;1999.90;999.90;;;-5.70;99.90;;;;;;6127768;23;20115;-73
2024/01/11 05:37:46;;;;;;;1999.90;999.90;;;-5.70;99.90;;;;;;6127766;23;20009;-73
2024/01/11 05:40:12;;;;;;;1999.90;999.90;;;-5.70;99.90;;;;;;6128045;23;20018;-72
2024/01/11 05:42:37;;;;;;;1999.90;999.90;;;-5.60;99.90;;;;;;6127477;23;20010;-72
2024/01/11 05:45:05;;;;;;;1999.90;999.90;;;-5.60;99.90;;;;;;6127880;23;20010;-72
2024/01/11 05:47:30;;;;;;;1999.90;999.90;;;-5.70;99.90;;;;;;6127401;23;20082;-73
2024/01/11 05:49:56;;;;;;;1999.90;999.90;;;-5.80;99.90;;;;;;6127851;23;20037;-77
2024/01/11 05:52:22;;;;;;;1999.90;999.90;;;-5.70;99.90;;;;;;6127410;23;20473;-75
2024/01/11 05:54:47;;;;;;;1999.90;999.90;;;-5.70;99.90;;;;;;6127542;23;20014;-73
2024/01/11 05:57:13;;;;;;;1999.90;999.90;;;-5.70;99.90;;;;;;6127392;23;20002;-73
2024/01/11 05:59:44;;;;;;;1999.90;999.90;;;-5.80;99.90;;;;;;6127761;23;20045;-73
2024/01/11 06:02:10;;;;;;;1999.90;999.90;;;-5.70;99.90;;;;;;6127420;23;20374;-73
2024/01/11 06:04:36;;;;;;;1999.90;999.90;;;-5.70;99.90;;;;;;6126966;23;20015;-73
2024/01/11 06:07:01;;;;;;;1999.90;999.90;;;-5.70;99.90;;;;;;6127238;23;20002;-73
2024/01/11 06:09:27;;;;;;;1999.90;999.90;;;-5.60;99.90;;;;;;6127442;23;20006;-73
2024/01/11 06:11:52;;;;;;;1999.90;999.90;;;-5.70;99.90;;;;;;6127176;23;20347;-72
2024/01/11 06:14:18;;;;;;;1999.90;999.90;;;-5.70;99.90;;;;;;6127528;23;20033;-73
2024/01/11 06:16:43;;;;;;;1999.90;999.90;;;-5.70;99.90;;;;;;6115769;23;20157;-72
2024/01/11 06:19:09;;;;;;;1999.90;999.90;;;-5.70;99.90;;;;;;6098181;23;20089;-73
2024/01/11 06:21:35;;;;;;;1999.90;999.90;;;-5.70;99.90;;;;;;6098081;23;20392;-73
2024/01/11 06:24:00;;;;;;;1999.90;999.90;;;-5.80;99.90;;;;;;6097853;23;20007;-73
2024/01/11 06:26:26;;;;;;;1999.90;999.90;;;-5.80;99.90;;;;;;6097956;23;20022;-72
2024/01/11 06:28:51;;;;;;;1999.90;999.90;;;-5.80;99.90;;;;;;6098032;23;20006;-73
2024/01/11 06:31:18;;;;;;;1999.90;999.90;;;-5.90;99.90;;;;;;6097564;23;20470;-74
2024/01/11 06:33:43;;;;;;;1999.90;999.90;;;-6.10;99.90;;;;;;6097787;23;20107;-73
2024/01/11 06:36:09;;;;;;;1999.90;999.90;;;-6.00;99.90;;;;;;6097738;23;20402;-72
2024/01/11 06:38:34;;;;;;;1999.90;999.90;;;-5.90;99.90;;;;;;6097991;23;20007;-73
2024/01/11 06:41:00;;;;;;;1999.90;999.90;;;-6.00;99.90;;;;;;6097681;23;20502;-74
2024/01/11 06:43:26;;;;;;;1999.90;999.90;;;-6.00;99.90;;;;;;6097845;23;20007;-73
2024/01/11 06:45:52;;;;;;;1999.90;999.90;;;-6.00;99.90;;;;;;6097849;23;20388;-74
2024/01/11 06:48:18;;;;;;;1999.90;999.90;;;-6.00;99.90;;;;;;6072167;23;20474;-74
2024/01/11 06:50:43;;;;;;;1999.90;999.90;;;-5.80;99.90;;;;;;6098025;23;20011;-74
2024/01/11 06:53:09;;;;;;;1999.90;999.90;;;-5.90;99.90;;;;;;6071928;23;20015;-72
2024/01/11 06:55:35;;;;;;;1999.90;999.90;;;-5.90;99.90;;;;;;6097882;23;20439;-72
2024/01/11 06:58:01;;;;;;;1999.90;999.90;;;-5.90;99.90;;;;;;6097860;23;20014;-73
2024/01/11 07:00:27;;;;;;;1999.90;999.90;;;-6.00;99.90;;;;;;6097731;23;20022;-74
2024/01/11 07:02:53;;;;;;;1999.90;999.90;;;-6.00;99.90;;;;;;6071894;23;20046;-72
2024/01/11 07:05:19;;;;;;;1999.90;999.90;;;-6.00;99.90;;;;;;6097870;23;20027;-73
2024/01/11 07:07:45;;;;;;;1999.90;999.90;;;-6.00;99.90;;;;;;6097577;23;20007;-73
2024/01/11 07:10:10;;;;;;;1999.90;999.90;;;-6.10;99.90;;;;;;6097873;23;20015;-73
2024/01/11 07:12:37;;;;;;;1999.90;999.90;;;-6.00;99.90;;;;;;6097632;23;20014;-73
2024/01/11 07:15:04;;;;;;;1999.90;999.90;;;-6.10;99.90;;;;;;6071904;23;20084;-73
2024/01/11 07:17:30;;;;;;;1999.90;999.90;;;-6.00;99.90;;;;;;6106360;23;20019;-73
2024/01/11 07:19:56;;;;;;;1999.90;999.90;;;-6.00;99.90;;;;;;6127162;23;20010;-73
2024/01/11 07:22:21;;;;;;;1999.90;999.90;;;-6.00;99.90;;;;;;6126854;23;20021;-73
2024/01/11 07:24:47;;;;;;;1999.90;999.90;;;-6.10;99.90;;;;;;6125601;23;20014;-73
2024/01/11 07:27:12;;;;;;;1999.90;999.90;;;-6.20;99.90;;;;;;6126844;23;20060;-73
2024/01/11 07:29:38;;;;;;;1999.90;999.90;;;-6.20;99.90;;;;;;6126719;23;20042;-73
2024/01/11 07:32:04;;;;;;;1999.90;999.90;;;-6.10;99.90;;;;;;6126615;23;20006;-73
2024/01/11 07:34:30;;;;;;;1999.90;999.90;;;-6.10;99.90;;;;;;6126839;23;20019;-74
2024/01/11 07:36:56;;;;;;;1999.90;999.90;;;-6.00;99.90;;;;;;6126576;23;20038;-73
2024/01/11 07:39:22;;;;;;;1999.90;999.90;;;-5.90;99.90;;;;;;6125046;23;20014;-74
2024/01/11 07:41:48;;;;;;;1999.90;999.90;;;-5.90;99.90;;;;;;6126491;23;20009;-73
2024/01/11 07:44:14;;;;;;;1999.90;999.90;;;-5.90;99.90;;;;;;6126816;23;20010;-73
2024/01/11 07:46:40;;;;;;;1999.90;999.90;;;-5.80;99.90;;;;;;6126710;23;20010;-73
2024/01/11 07:49:06;;;;;;;1999.90;999.90;;;-5.80;99.90;;;;;;6126714;23;20141;-73
2024/01/11 07:51:34;;;;;;;1999.90;999.90;;;-5.80;99.90;;;;;;6126541;23;20006;-73
2024/01/11 07:54:00;;;;;;;1999.90;999.90;;;-5.60;99.90;;;;;;6126706;23;20015;-73
2024/01/11 07:56:25;;;;;;;1999.90;999.90;;;-5.80;99.90;;;;;;6126591;23;20431;-74
2024/01/11 07:58:51;;;;;;;1999.90;999.90;;;-5.70;99.90;;;;;;6126916;23;20157;-73
2024/01/11 08:01:16;;;;;;;1999.90;999.90;;;-5.70;99.90;;;;;;6124654;22;20015;-73
2024/01/11 08:03:44;;;;;;;1999.90;999.90;;;-5.70;99.90;;;;;;6126754;23;20010;-73
2024/01/11 08:06:10;;;;;;;1999.90;999.90;;;-5.60;99.90;;;;;;6126590;23;20003;-74
2024/01/11 08:08:38;;;;;;;1999.90;999.90;;;-5.70;99.90;;;;;;6126700;23;20446;-73
2024/01/11 08:11:04;;;;;;;1999.90;999.90;;;-5.60;99.90;;;;;;6126439;23;20006;-73
2024/01/11 08:13:31;;;;;;;1999.90;999.90;;;-5.50;99.90;;;;;;6124825;23;20015;-74
2024/01/11 08:15:57;;;;;;;1999.90;999.90;;;-5.40;99.90;;;;;;6125533;23;20085;-74
2024/01/11 08:18:23;;;;;;;1999.90;999.90;;;-5.40;99.90;;;;;;6071691;23;20038;-73
2024/01/11 08:20:49;;;;;;;1999.90;999.90;;;-5.40;99.90;;;;;;6097152;23;20093;-74
2024/01/11 08:23:15;;;;;;;1999.90;999.90;;;-5.40;99.90;;;;;;6096846;23;20122;-73
2024/01/11 08:25:40;;;;;;;1999.90;999.90;;;-5.40;99.90;;;;;;6097460;23;20014;-73
2024/01/11 08:28:07;;;;;;;1999.90;999.90;;;-5.30;99.90;;;;;;6071328;23;20021;-74
2024/01/11 08:30:32;;;;;;;1999.90;999.90;;;-5.20;99.90;;;;;;6097265;23;20014;-73
2024/01/11 08:32:58;;;;;;;1999.90;999.90;;;-5.10;99.90;;;;;;6096898;23;20351;-74
2024/01/11 08:35:23;;;;;;;1999.90;999.90;;;-5.10;99.90;;;;;;6096628;23;20015;-73
2024/01/11 08:37:49;;;;;;;1999.90;999.90;;;-5.00;99.90;;;;;;6097074;23;20007;-74
2024/01/11 08:40:15;;;;;;;1999.90;999.90;;;-4.90;99.90;;;;;;6098322;23;20065;-73
2024/01/11 08:42:42;;;;;;;1999.90;999.90;;;-4.90;99.90;;;;;;6098762;23;20035;-73
2024/01/11 08:45:08;;;;;;;1999.90;999.90;;;-4.80;99.90;;;;;;6098973;23;20015;-73
2024/01/11 08:47:35;;;;;;;1999.90;999.90;;;-4.80;99.90;;;;;;6098606;23;20007;-73
2024/01/11 08:50:01;;;;;;;1999.90;999.90;;;-4.70;99.90;;;;;;6098911;23;20094;-73
2024/01/11 08:52:26;;;;;;;1999.90;999.90;;;-4.70;99.90;;;;;;6073110;23;20006;-73
2024/01/11 08:54:52;;;;;;;1999.90;999.90;;;-4.60;99.90;;;;;;6098855;23;20342;-73
2024/01/11 08:57:17;;;;;;;1999.90;999.90;;;-4.50;99.90;;;;;;6072982;23;20019;-73
2024/01/11 08:59:44;;;;;;;1999.90;999.90;;;-4.50;99.90;;;;;;6098916;23;20031;-73
2024/01/11 09:02:10;;;;;;;1999.90;999.90;;;-4.40;99.90;;;;;;6098660;23;20003;-73
2024/01/11 09:04:36;;;;;;;1999.90;999.90;;;-4.30;99.90;;;;;;6098882;23;20014;-73
2024/01/11 09:07:02;;;;;;;1999.90;999.90;;;-4.20;99.90;;;;;;6098459;23;20343;-73
2024/01/11 09:09:27;;;;;;;1999.90;999.90;;;-4.20;99.90;;;;;;6098749;23;20013;-73
2024/01/11 09:11:53;;;;;;;1999.90;999.90;;;-4.00;99.90;;;;;;6098381;23;20003;-74
2024/01/11 09:14:18;;;;;;;1999.90;999.90;;;-4.00;99.90;;;;;;6098764;23;20018;-73
2024/01/11 09:16:45;;;;;;;1999.90;999.90;;;-3.90;99.90;;;;;;6098108;23;20023;-73
2024/01/11 09:19:11;;;;;;;1999.90;999.90;;;-3.80;99.90;;;;;;6098689;23;20007;-73
2024/01/11 09:21:37;;;;;;;1999.90;999.90;;;-3.70;99.90;;;;;;6098294;23;20433;-73
2024/01/11 09:24:03;;;;;;;1999.90;999.90;;;-3.60;99.90;;;;;;6098564;23;20094;-73
2024/01/11 09:26:28;;;;;;;1999.90;999.90;;;-3.50;99.90;;;;;;6098227;23;20336;-73
2024/01/11 09:28:54;;;;;;;1999.90;999.90;;;-3.50;99.90;;;;;;6098547;23;20011;-74
2024/01/11 09:31:19;;;;;;;1999.90;999.90;;;-3.50;99.90;;;;;;6098334;23;20011;-74
2024/01/11 09:33:45;;;;;;;1999.90;999.90;;;-3.40;99.90;;;;;;6098021;23;20411;-74
2024/01/11 09:36:11;;;;;;;1999.90;999.90;;;-3.30;99.90;;;;;;6098285;23;20553;-73
2024/01/11 09:38:37;;;;;;;1999.90;999.90;;;-3.30;99.90;;;;;;6098596;23;20787;-73
2024/01/11 09:41:11;;;;;;;1999.90;999.90;;;-3.20;99.90;;;;;;6098231;23;20384;-73
2024/01/11 09:43:38;;;;;;;1999.90;999.90;;;-3.10;99.90;;;;;;6098525;23;20007;-76
2024/01/11 09:46:07;;;;;;;1999.90;999.90;;;-3.10;99.90;;;;;;6072643;23;20011;-72
2024/01/11 09:48:34;;;;;;;1999.90;999.90;;;-3.00;99.90;;;;;;6098406;23;20014;-73
2024/01/11 09:51:04;;;;;;;1999.90;999.90;;;-3.00;99.90;;;;;;6097615;23;20010;-73
2024/01/11 09:53:33;;;;;;;1999.90;999.90;;;-2.80;99.90;;;;;;6098247;23;20015;-73
2024/01/11 09:56:00;;;;;;;1999.90;999.90;;;-2.80;99.90;;;;;;6097922;23;20007;-73
2024/01/11 09:58:26;;;;;;;1999.90;999.90;;;-2.70;99.90;;;;;;6096941;23;20139;-73
2024/01/11 10:00:56;;;;;;;1999.90;999.90;;;-2.60;99.90;;;;;;6097572;23;20008;-73
2024/01/11 10:03:23;;;;;;;1999.90;999.90;;;-2.50;99.90;;;;;;6097390;23;20072;-73
2024/01/11 10:05:50;;;;;;;1999.90;999.90;;;-2.40;99.90;;;;;;6097408;23;20351;-73
2024/01/11 10:08:19;;;;;;;1999.90;999.90;;;-2.40;99.90;;;;;;6097679;23;20010;-73
2024/01/11 10:10:44;;;;;;;1999.90;999.90;;;-2.30;99.90;;;;;;6097565;23;20039;-73
2024/01/11 10:13:10;;;;;;;1999.90;999.90;;;-2.20;99.90;;;;;;6097041;23;20032;-73
2024/01/11 10:15:36;;;;;;;1999.90;999.90;;;-2.20;99.90;;;;;;6097274;23;20057;-73
2024/01/11 10:18:02;;;;;;;1999.90;999.90;;;-2.10;99.90;;;;;;6097015;23;20393;-71
2024/01/11 10:20:29;;;;;;;1999.90;999.90;;;-2.10;99.90;;;;;;6097429;23;20083;-72
2024/01/11 10:22:56;;;;;;;1999.90;999.90;;;-2.00;99.90;;;;;;6096817;23;20011;-73
2024/01/11 10:25:23;;;;;;;1999.90;999.90;;;-1.90;99.90;;;;;;6097499;23;20019;-74
2024/01/11 10:27:49;;;;;;;1999.90;999.90;;;-1.90;99.90;;;;;;6097093;23;20003;-74
2024/01/11 10:30:16;;;;;;;1999.90;999.90;;;-1.80;99.90;;;;;;6097295;23;20014;-74
2024/01/11 10:32:42;;;;;;;1999.90;999.90;;;-1.70;99.90;;;;;;6097076;23;20085;-74
2024/01/11 10:35:08;;;;;;;1999.90;999.90;;;-1.70;99.90;;;;;;6096846;23;20103;-72
2024/01/11 10:37:33;;;;;;;1999.90;999.90;;;-1.70;99.90;;;;;;6096909;23;20007;-72
2024/01/11 10:40:04;;;;;;;1999.90;999.90;;;-1.60;99.90;;;;;;6097296;23;20006;-72
2024/01/11 10:42:31;;;;;;;1999.90;999.90;;;-1.50;99.90;;;;;;6071120;23;20082;-72
2024/01/11 10:45:02;;;;;;;1999.90;999.90;;;-1.50;99.90;;;;;;6097202;23;20021;-72
2024/01/11 10:47:30;;;;;;;1999.90;999.90;;;-1.40;99.90;;;;;;6096735;23;20003;-75
2024/01/11 10:49:57;;;;;;;1999.90;999.90;;;-1.40;99.90;;;;;;6097426;23;20011;-70
2024/01/11 10:52:33;;;;;;;1999.90;999.90;;;-1.40;99.90;;;;;;6071231;23;20093;-70
2024/01/11 10:55:00;;;;;;;1999.90;999.90;;;-1.30;99.90;;;;;;6095036;23;20360;-72
2024/01/11 10:57:28;;;;;;;1999.90;999.90;;;-1.30;99.90;;;;;;6096658;23;20057;-71
2024/01/11 10:59:55;;;;;;;1999.90;999.90;;;-1.20;99.90;;;;;;6096579;23;20017;-71
2024/01/11 11:02:22;;;;;;;1999.90;999.90;;;-1.10;99.90;;;;;;6096606;23;20007;-71
2024/01/11 11:04:50;;;;;;;1999.90;999.90;;;-1.00;99.90;;;;;;6096499;23;20022;-71
2024/01/11 11:07:16;;;;;;;1999.90;999.90;;;-0.90;99.90;;;;;;6096522;23;20023;-72
2024/01/11 11:09:45;;;;;;;1999.90;999.90;;;-0.80;99.90;;;;;;6096426;23;20014;-72
2024/01/11 11:12:11;;;;;;;1999.90;999.90;;;-0.80;99.90;;;;;;6096549;23;20010;-71
2024/01/11 11:14:38;;;;;;;1999.90;999.90;;;-0.70;99.90;;;;;;6096665;23;20026;-71
2024/01/11 11:17:05;;;;;;;1999.90;999.90;;;-0.70;99.90;;;;;;6097121;23;20418;-71
2024/01/11 11:19:31;;;;;;;1999.90;999.90;;;-0.60;99.90;;;;;;6097083;23;20451;-72
2024/01/11 11:21:56;;;;;;;1999.90;999.90;;;-0.60;99.90;;;;;;6096648;23;20022;-71
2024/01/11 11:24:22;;;;;;;1999.90;999.90;;;-0.50;99.90;;;;;;6097039;23;20011;-72
2024/01/11 11:26:47;;;;;;;1999.90;999.90;;;-0.50;99.90;;;;;;6096732;23;20011;-72
2024/01/11 11:29:15;;;;;;;1999.90;999.90;;;-0.50;99.90;;;;;;6096760;23;20215;-71
2024/01/11 11:31:53;;;;;;;1999.90;999.90;;;-0.40;99.90;;;;;;6096778;23;20545;-71
2024/01/11 11:34:20;;;;;;;1999.90;999.90;;;-0.30;99.90;;;;;;6096653;23;20121;-71
2024/01/11 11:36:54;;;;;;;1999.90;999.90;;;-0.20;99.90;;;;;;6096659;23;20009;-70
2024/01/11 11:39:20;;;;;;;1999.90;999.90;;;-0.10;99.90;;;;;;6096713;23;20090;-71
2024/01/11 11:41:47;;;;;;;1999.90;999.90;;;-0.10;99.90;;;;;;6096599;23;20656;-71
2024/01/11 11:44:16;;;;;;;1999.90;999.90;;;0.00;99.90;;;;;;6096863;23;20039;-69
2024/01/11 11:46:41;;;;;;;1999.90;999.90;;;0.10;99.90;;;;;;6096645;23;20074;-70
2024/01/11 11:49:07;;;;;;;1999.90;999.90;;;0.20;99.90;;;;;;6096725;23;20090;-70
2024/01/11 11:51:32;;;;;;;1999.90;999.90;;;0.30;99.90;;;;;;6096612;23;20086;-70
2024/01/11 11:53:58;;;;;;;1999.90;999.90;;;0.30;99.90;;;;;;6096712;23;20015;-70